Terminal Aerodrome Forecast
Issued by NWS Wakefield, VA

Home | Current Version | Previous Version | Text Only | Print | Product List | Glossary On
Versions: 1 2 3 4 5 6 7 8 9 10 11 12
116
FTUS41 KAKQ 172324
TAFORF
TAF
KORF 172324Z 1800/1824 21008KT P6SM OVC100
     FM180800 23005KT P6SM SCT090=

USA.gov is the U.S. government's official web portal to all federal, state and local government web resources and services.